EIN67 WIGG-WIPP
Flight info
| Callsign | EIN67 |
|---|---|
| Flight time | N/A |
| Altitude | 21000 |
| Route | RAWAS |
| Aircraft | B463/M-SDFGIRWY/LB1 |
Departure
| Time | 2026-05-06 16:51 |
|---|---|
| Airport | Fatmawati Soekarno Airport (WIGG) |
Arrival
| Time | N/A |
|---|---|
| Airport | Sultan Mahmud Badaruddin II Airport (WIPP) |
| Time | Latitude | Longitude | Altitude | Speed | Heading |
|---|---|---|---|---|---|
| 2026-05-06 15:59 | -3.86027 | 102.33760 | 72 ft | 0 kts | 42° |
| 2026-05-06 16:17 | -3.86017 | 102.33773 | 68 ft | 6 kts | 71° |
| 2026-05-06 16:17 | -3.86023 | 102.33807 | 69 ft | 0 kts | 128° |
| 2026-05-06 16:26 | -3.86047 | 102.33836 | 67 ft | 12 kts | 132° |
| 2026-05-06 16:27 | -3.86111 | 102.33889 | 67 ft | 11 kts | 162° |
| 2026-05-06 16:27 | -3.86179 | 102.33876 | 70 ft | 10 kts | 206° |
| 2026-05-06 16:27 | -3.86197 | 102.33863 | 69 ft | 0 kts | 224° |
| 2026-05-06 16:47 | -3.86218 | 102.33842 | 73 ft | 10 kts | 224° |
| 2026-05-06 16:47 | -3.86286 | 102.33821 | 74 ft | 14 kts | 158° |
| 2026-05-06 16:47 | -3.86376 | 102.33912 | 72 ft | 23 kts | 132° |
| 2026-05-06 16:48 | -3.86502 | 102.34054 | 76 ft | 30 kts | 131° |
| 2026-05-06 16:48 | -3.86649 | 102.34211 | 77 ft | 32 kts | 133° |
| 2026-05-06 16:48 | -3.86797 | 102.34370 | 84 ft | 27 kts | 131° |
| 2026-05-06 16:48 | -3.86924 | 102.34506 | 84 ft | 26 kts | 133° |
| 2026-05-06 16:49 | -3.87026 | 102.34628 | 75 ft | 21 kts | 121° |
| 2026-05-06 16:49 | -3.87051 | 102.34598 | 74 ft | 10 kts | 311° |
| 2026-05-06 16:49 | -3.87044 | 102.34591 | 73 ft | 0 kts | 311° |
| 2026-05-06 16:50 | -3.87044 | 102.34590 | 73 ft | 2 kts | 311° |
| 2026-05-06 16:50 | -3.86815 | 102.34342 | 83 ft | 98 kts | 313° |
| 2026-05-06 16:50 | -3.86154 | 102.33664 | 232 ft | 163 kts | 315° |
| 2026-05-06 16:50 | -3.85588 | 102.33092 | 623 ft | 186 kts | 315° |
| 2026-05-06 16:51 | -3.84158 | 102.31750 | 1545 ft | 240 kts | 317° |
| 2026-05-06 16:51 | -3.82832 | 102.30566 | 2488 ft | 270 kts | 318° |
| 2026-05-06 16:51 | -3.81368 | 102.29273 | 3588 ft | 291 kts | 318° |
| 2026-05-06 16:51 | -3.79755 | 102.27973 | 4776 ft | 305 kts | 329° |
| 2026-05-06 16:52 | -3.77717 | 102.27366 | 5965 ft | 312 kts | 359° |
| 2026-05-06 16:52 | -3.75571 | 102.27772 | 6967 ft | 323 kts | 21° |
| 2026-05-06 16:52 | -3.73364 | 102.28693 | 6913 ft | 363 kts | 24° |
| 2026-05-06 16:52 | -3.71045 | 102.29731 | 6762 ft | 356 kts | 25° |
| 2026-05-06 16:53 | -3.68935 | 102.30857 | 6602 ft | 333 kts | 38° |
| 2026-05-06 16:53 | -3.67389 | 102.32479 | 6496 ft | 313 kts | 52° |
| 2026-05-06 16:53 | -3.66070 | 102.34142 | 6407 ft | 298 kts | 51° |
| 2026-05-06 16:53 | -3.64825 | 102.35715 | 6269 ft | 287 kts | 52° |
| 2026-05-06 16:54 | -3.63626 | 102.37278 | 6140 ft | 279 kts | 53° |
| 2026-05-06 16:54 | -3.62466 | 102.38812 | 6006 ft | 274 kts | 53° |
| 2026-05-06 16:54 | -3.61332 | 102.40323 | 5888 ft | 269 kts | 53° |
| 2026-05-06 16:54 | -3.60225 | 102.41790 | 5906 ft | 260 kts | 53° |
| 2026-05-06 16:55 | -3.59136 | 102.43216 | 5865 ft | 255 kts | 53° |
| 2026-05-06 16:55 | -3.58177 | 102.44688 | 5835 ft | 250 kts | 64° |
| 2026-05-06 16:55 | -3.57264 | 102.46156 | 5816 ft | 248 kts | 54° |
| 2026-05-06 16:55 | -3.56226 | 102.47526 | 5797 ft | 246 kts | 53° |
| 2026-05-06 16:56 | -3.55184 | 102.48882 | 5767 ft | 245 kts | 53° |
| 2026-05-06 16:56 | -3.54145 | 102.50222 | 5749 ft | 249 kts | 53° |
| 2026-05-06 16:56 | -3.53073 | 102.51601 | 5728 ft | 252 kts | 53° |
| 2026-05-06 16:56 | -3.51990 | 102.52988 | 5702 ft | 254 kts | 52° |
| 2026-05-06 16:57 | -3.50902 | 102.54384 | 5679 ft | 255 kts | 53° |
| 2026-05-06 16:57 | -3.49809 | 102.55788 | 5657 ft | 256 kts | 53° |
| 2026-05-06 16:57 | -3.48710 | 102.57194 | 5649 ft | 257 kts | 52° |
| 2026-05-06 16:57 | -3.47609 | 102.58599 | 5620 ft | 257 kts | 52° |
| 2026-05-06 16:58 | -3.46507 | 102.60011 | 5580 ft | 258 kts | 52° |
| 2026-05-06 16:58 | -3.45403 | 102.61423 | 5552 ft | 258 kts | 52° |
| 2026-05-06 16:58 | -3.44299 | 102.62841 | 5539 ft | 258 kts | 53° |
| 2026-05-06 16:58 | -3.43195 | 102.64257 | 5522 ft | 258 kts | 52° |
| 2026-05-06 16:59 | -3.42104 | 102.65650 | 5512 ft | 259 kts | 52° |
| 2026-05-06 16:59 | -3.40899 | 102.67195 | 5496 ft | 310 kts | 52° |
| 2026-05-06 16:59 | -3.39480 | 102.69006 | 5587 ft | 345 kts | 52° |
| 2026-05-06 16:59 | -3.38050 | 102.70830 | 5541 ft | 322 kts | 52° |
| 2026-05-06 17:00 | -3.36708 | 102.72549 | 5486 ft | 306 kts | 53° |
| 2026-05-06 17:00 | -3.35420 | 102.74191 | 5398 ft | 294 kts | 53° |
| 2026-05-06 17:00 | -3.34175 | 102.75782 | 5284 ft | 287 kts | 53° |
| 2026-05-06 17:00 | -3.32955 | 102.77345 | 5149 ft | 283 kts | 53° |
| 2026-05-06 17:01 | -3.31735 | 102.78880 | 5036 ft | 281 kts | 53° |
| 2026-05-06 17:01 | -3.30528 | 102.80382 | 4902 ft | 280 kts | 52° |
| 2026-05-06 17:01 | -3.29330 | 102.81876 | 4985 ft | 272 kts | 52° |
| 2026-05-06 17:01 | -3.28157 | 102.83336 | 5052 ft | 266 kts | 52° |
| 2026-05-06 17:02 | -3.27023 | 102.84734 | 5050 ft | 253 kts | 52° |
| 2026-05-06 17:02 | -3.25916 | 102.86104 | 5070 ft | 254 kts | 52° |
| 2026-05-06 17:02 | -3.24799 | 102.87485 | 5110 ft | 256 kts | 52° |
| 2026-05-06 17:02 | -3.23676 | 102.88870 | 5151 ft | 257 kts | 52° |
| 2026-05-06 17:03 | -3.22548 | 102.90260 | 5195 ft | 257 kts | 52° |
| 2026-05-06 17:03 | -3.21419 | 102.91650 | 5211 ft | 258 kts | 52° |
| 2026-05-06 17:03 | -3.20288 | 102.93042 | 5258 ft | 258 kts | 52° |
| 2026-05-06 17:03 | -3.19156 | 102.94436 | 5298 ft | 258 kts | 52° |
| 2026-05-06 17:04 | -3.18025 | 102.95831 | 5339 ft | 258 kts | 52° |
| 2026-05-06 17:04 | -3.16893 | 102.97224 | 5384 ft | 258 kts | 52° |
| 2026-05-06 17:04 | -3.15775 | 102.98601 | 5425 ft | 258 kts | 52° |
| 2026-05-06 17:04 | -3.14640 | 102.99997 | 5467 ft | 258 kts | 52° |
| 2026-05-06 17:05 | -3.13505 | 103.01392 | 5508 ft | 259 kts | 52° |
| 2026-05-06 17:05 | -3.12371 | 103.02786 | 5537 ft | 259 kts | 52° |
| 2026-05-06 17:05 | -3.11234 | 103.04184 | 5576 ft | 259 kts | 52° |
| 2026-05-06 17:05 | -3.10100 | 103.05578 | 5618 ft | 259 kts | 52° |
| 2026-05-06 17:06 | -3.08965 | 103.06973 | 5654 ft | 259 kts | 52° |
| 2026-05-06 17:06 | -3.07829 | 103.08369 | 5684 ft | 259 kts | 52° |
| 2026-05-06 17:06 | -3.06692 | 103.09763 | 5719 ft | 259 kts | 52° |
| 2026-05-06 17:06 | -3.05557 | 103.11157 | 5766 ft | 259 kts | 52° |
| 2026-05-06 17:07 | -3.04418 | 103.12552 | 5807 ft | 259 kts | 52° |
| 2026-05-06 17:07 | -3.03280 | 103.13946 | 5848 ft | 258 kts | 53° |
| 2026-05-06 17:07 | -3.02136 | 103.15330 | 5890 ft | 258 kts | 52° |
| 2026-05-06 17:07 | -3.01007 | 103.16688 | 5927 ft | 257 kts | 52° |
| 2026-05-06 17:08 | -2.99862 | 103.18063 | 5962 ft | 257 kts | 52° |
| 2026-05-06 17:08 | -2.98719 | 103.19438 | 5997 ft | 257 kts | 52° |
| 2026-05-06 17:08 | -2.97576 | 103.20810 | 6027 ft | 257 kts | 52° |
| 2026-05-06 17:08 | -2.96429 | 103.22183 | 6051 ft | 258 kts | 52° |
| 2026-05-06 17:09 | -2.95276 | 103.23558 | 6075 ft | 258 kts | 52° |
| 2026-05-06 17:09 | -2.94122 | 103.24932 | 6099 ft | 258 kts | 52° |
| 2026-05-06 17:09 | -2.92965 | 103.26309 | 6123 ft | 258 kts | 52° |
| 2026-05-06 17:09 | -2.91809 | 103.27686 | 6144 ft | 259 kts | 52° |
| 2026-05-06 17:10 | -2.90653 | 103.29065 | 6173 ft | 259 kts | 52° |
| 2026-05-06 17:10 | -2.89523 | 103.30460 | 6191 ft | 257 kts | 56° |
| 2026-05-06 17:10 | -2.84259 | 103.67566 | 10132 ft | 8241 kts | 58° |
| 2026-05-06 17:10 | -2.81663 | 103.77613 | 12302 ft | 258 kts | 69° |
| 2026-05-06 17:11 | -2.81506 | 103.77995 | 12183 ft | 261 kts | 70° |